createdAt,value
2018-07-01T00:01:55.204Z,69.80
2018-07-01T00:04:22.946Z,70.30
2018-07-01T00:06:51.036Z,70.60
2018-07-01T00:09:18.680Z,70.90
2018-07-01T00:11:46.496Z,70.60
2018-07-01T00:14:14.092Z,71.40
2018-07-01T00:19:09.548Z,71.90
2018-07-01T00:21:37.166Z,72.40
2018-07-01T00:24:04.829Z,73.00
2018-07-01T00:29:00.011Z,73.20
2018-07-01T00:31:27.643Z,73.40
2018-07-01T00:33:55.244Z,73.40
2018-07-01T00:36:22.884Z,73.70
2018-07-01T00:38:51.521Z,73.90
2018-07-01T00:41:19.144Z,74.10
2018-07-01T00:43:46.732Z,75.30
2018-07-01T00:46:14.365Z,74.90
2018-07-01T00:48:41.979Z,75.30
2018-07-01T00:51:09.760Z,75.30
2018-07-01T00:53:37.442Z,75.70
2018-07-01T00:56:09.025Z,75.60
2018-07-01T00:58:36.680Z,75.50
2018-07-01T01:01:04.377Z,76.20
2018-07-01T01:03:31.944Z,76.20
2018-07-01T01:05:59.603Z,76.70
2018-07-01T01:08:27.203Z,76.80
2018-07-01T01:10:54.827Z,77.70
2018-07-01T01:13:22.600Z,77.90
2018-07-01T01:15:51.140Z,78.70
2018-07-01T01:18:18.747Z,78.70
2018-07-01T01:20:46.341Z,78.70
2018-07-01T01:23:13.893Z,79.40
2018-07-01T01:25:41.455Z,79.70
2018-07-01T01:28:09.024Z,80.40
2018-07-01T01:30:36.582Z,80.60
2018-07-01T01:33:04.223Z,81.00
2018-07-01T01:35:31.871Z,81.20
2018-07-01T01:37:59.491Z,81.10
2018-07-01T01:40:32.041Z,81.10
2018-07-01T01:43:06.858Z,81.30
2018-07-01T01:45:54.061Z,81.50
2018-07-01T01:48:26.272Z,82.10
2018-07-01T01:50:59.326Z,82.40
2018-07-01T01:54:32.542Z,82.70
2018-07-01T01:57:05.850Z,83.20
2018-07-01T01:59:44.438Z,83.50
2018-07-01T02:02:18.627Z,83.80
2018-07-01T02:04:50.799Z,85.10
2018-07-01T02:08:23.227Z,85.00
2018-07-01T02:10:50.877Z,85.50
2018-07-01T02:13:18.517Z,85.90
2018-07-01T02:15:50.130Z,86.50
2018-07-01T02:18:17.759Z,86.80
2018-07-01T02:20:45.553Z,87.30
2018-07-01T02:23:19.506Z,87.60
2018-07-01T02:25:47.132Z,87.50
2018-07-01T02:28:14.747Z,88.10
2018-07-01T02:30:42.309Z,88.80
2018-07-01T02:33:09.985Z,88.90
2018-07-01T02:35:37.531Z,89.10
2018-07-01T02:38:05.127Z,89.80
2018-07-01T02:40:32.726Z,90.10
2018-07-01T02:43:00.320Z,90.10
2018-07-01T02:45:27.902Z,90.10
2018-07-01T02:47:55.897Z,90.30
2018-07-01T02:50:23.531Z,90.80
2018-07-01T02:52:51.234Z,90.80
2018-07-01T02:55:18.808Z,91.20
2018-07-01T02:57:46.429Z,91.10
2018-07-01T03:00:14.491Z,91.30
2018-07-01T03:02:42.051Z,91.50
2018-07-01T03:05:09.752Z,91.80
2018-07-01T03:07:37.355Z,91.90
2018-07-01T03:10:05.163Z,92.00
2018-07-01T03:12:32.735Z,92.30
2018-07-01T03:15:04.288Z,92.40
2018-07-01T03:17:32.143Z,92.70
2018-07-01T03:19:59.841Z,93.00
2018-07-01T03:22:27.475Z,93.20
2018-07-01T03:24:55.104Z,93.10
2018-07-01T03:27:22.653Z,93.60
2018-07-01T03:29:50.539Z,93.60
2018-07-01T03:32:18.068Z,93.70
2018-07-01T03:34:45.615Z,93.90
2018-07-01T03:37:13.514Z,94.20
2018-07-01T03:39:41.103Z,94.20
2018-07-01T03:42:08.658Z,94.40
2018-07-01T03:44:36.396Z,94.60
2018-07-01T03:47:04.196Z,94.80
2018-07-01T03:49:32.011Z,95.00
2018-07-01T03:51:59.543Z,95.00
2018-07-01T03:54:27.099Z,95.20
2018-07-01T03:56:54.663Z,95.40
2018-07-01T03:59:22.219Z,95.50
2018-07-01T04:01:49.814Z,95.60
2018-07-01T04:04:17.392Z,95.80
2018-07-01T04:06:44.952Z,95.70
2018-07-01T04:09:13.255Z,96.00
2018-07-01T04:11:41.210Z,96.20
2018-07-01T04:14:09.026Z,96.40
2018-07-01T04:16:37.163Z,96.60
2018-07-01T04:19:04.826Z,97.00
2018-07-01T04:21:32.420Z,97.20
2018-07-01T04:23:59.966Z,97.30
2018-07-01T04:26:27.550Z,97.60
2018-07-01T04:28:55.095Z,97.70
2018-07-01T04:31:22.700Z,98.00
2018-07-01T04:33:50.370Z,97.90
2018-07-01T04:36:18.003Z,97.80
2018-07-01T04:38:45.538Z,97.70
2018-07-01T04:41:13.110Z,97.60
2018-07-01T04:43:40.734Z,97.50
2018-07-01T04:48:35.998Z,97.50
2018-07-01T04:51:03.627Z,97.60
2018-07-01T04:53:31.294Z,97.70
2018-07-01T04:55:59.146Z,97.50
2018-07-01T04:58:26.915Z,97.20
2018-07-01T05:00:54.501Z,97.10
2018-07-01T05:03:22.243Z,96.90
2018-07-01T05:05:49.822Z,96.80
2018-07-01T05:08:17.391Z,96.90
2018-07-01T05:10:45.150Z,96.70
2018-07-01T05:13:12.711Z,96.50
2018-07-01T05:15:40.266Z,96.10
2018-07-01T05:18:07.859Z,96.20
2018-07-01T05:20:35.422Z,95.30
2018-07-01T05:23:02.999Z,95.10
2018-07-01T05:25:30.829Z,94.80
2018-07-01T05:27:58.396Z,94.70
2018-07-01T05:30:26.063Z,94.40
2018-07-01T05:32:53.563Z,94.30
2018-07-01T05:35:21.111Z,93.90
2018-07-01T05:37:48.803Z,93.90
2018-07-01T05:40:16.358Z,93.40
2018-07-01T05:42:43.975Z,94.10
2018-07-01T05:45:11.551Z,93.30
2018-07-01T05:47:39.133Z,92.60
2018-07-01T05:50:06.832Z,92.40
2018-07-01T05:52:34.487Z,92.50
2018-07-01T05:55:02.117Z,91.80
2018-07-01T05:57:29.663Z,91.60
2018-07-01T05:59:57.219Z,90.80
2018-07-01T06:02:24.817Z,91.30
2018-07-01T06:04:52.736Z,90.50
2018-07-01T06:07:20.280Z,90.40
2018-07-01T06:09:47.897Z,89.10
2018-07-01T06:12:15.468Z,89.30
2018-07-01T06:14:43.036Z,87.40
2018-07-01T06:17:10.791Z,86.50
2018-07-01T06:19:38.339Z,85.60
2018-07-01T06:22:05.879Z,86.10
2018-07-01T06:24:33.508Z,87.30
2018-07-01T06:27:01.161Z,84.00
2018-07-01T06:29:28.747Z,82.40
2018-07-01T06:31:56.323Z,80.70
2018-07-01T06:34:23.911Z,78.90
2018-07-01T06:36:51.458Z,77.60
2018-07-01T06:39:19.033Z,77.60
2018-07-01T06:41:46.617Z,73.00
2018-07-01T06:44:14.291Z,71.70
2018-07-01T06:49:09.511Z,70.70
2018-07-01T06:51:37.160Z,70.80
2018-07-01T06:54:04.761Z,67.70
2018-07-01T06:56:32.486Z,66.60
2018-07-01T06:59:00.216Z,66.10
2018-07-01T07:01:27.828Z,64.90
2018-07-01T07:03:55.374Z,64.80
2018-07-01T07:06:22.944Z,63.00
2018-07-01T07:08:50.486Z,61.60
2018-07-01T07:13:45.785Z,60.90
2018-07-01T07:16:13.682Z,59.50
2018-07-01T07:18:41.303Z,59.50
2018-07-01T07:21:08.989Z,58.90
2018-07-01T07:23:36.589Z,59.90
2018-07-01T07:26:08.175Z,58.70
2018-07-01T07:28:35.884Z,57.30
2018-07-01T07:31:03.682Z,56.10
2018-07-01T07:33:31.255Z,55.40
2018-07-01T07:35:58.864Z,55.50
2018-07-01T07:38:35.447Z,56.30
2018-07-01T07:41:03.034Z,54.30
2018-07-01T07:43:30.742Z,52.70
2018-07-01T07:45:59.407Z,52.90
2018-07-01T07:48:27.139Z,52.30
2018-07-01T07:50:54.776Z,50.80
2018-07-01T07:53:22.326Z,50.80
2018-07-01T07:55:50.136Z,50.40
2018-07-01T07:58:17.738Z,51.20
2018-07-01T08:00:45.585Z,48.10
2018-07-01T08:03:13.092Z,47.40
2018-07-01T08:05:44.865Z,49.80
2018-07-01T08:08:12.499Z,47.60
2018-07-01T08:10:40.048Z,47.00
2018-07-01T08:13:07.687Z,46.60
2018-07-01T08:15:35.215Z,44.70
2018-07-01T08:20:42.672Z,46.00
2018-07-01T08:23:10.226Z,44.20
2018-07-01T08:25:47.690Z,43.70
2018-07-01T08:28:15.251Z,42.00
2018-07-01T08:30:42.869Z,42.30
2018-07-01T08:33:14.561Z,43.40
2018-07-01T08:35:42.107Z,40.90
2018-07-01T08:38:09.844Z,41.90
2018-07-01T08:40:37.425Z,42.00
2018-07-01T08:43:09.040Z,42.00
2018-07-01T08:45:43.267Z,41.50
2018-07-01T08:48:11.142Z,42.00
2018-07-01T08:50:40.944Z,42.70
2018-07-01T08:53:08.598Z,41.90
2018-07-01T08:55:37.208Z,37.90
2018-07-01T08:58:21.539Z,37.70
2018-07-01T09:00:49.200Z,41.80
2018-07-01T09:03:37.358Z,40.20
2018-07-01T09:06:04.967Z,38.10
2018-07-01T09:08:32.654Z,36.40
2018-07-01T09:11:01.455Z,37.50
2018-07-01T09:13:33.080Z,36.70
2018-07-01T09:16:00.759Z,37.10
2018-07-01T09:18:29.359Z,37.40
2018-07-01T09:21:03.021Z,37.20
2018-07-01T09:23:34.482Z,37.00
2018-07-01T09:26:02.015Z,40.80
2018-07-01T09:28:29.539Z,36.60
2018-07-01T09:30:58.195Z,37.30
2018-07-01T09:33:32.463Z,37.50
2018-07-01T09:36:00.036Z,38.30
2018-07-01T09:38:27.598Z,38.90
2018-07-01T09:40:55.298Z,37.20
2018-07-01T09:43:22.893Z,36.30
2018-07-01T09:45:50.563Z,37.50
2018-07-01T09:48:18.102Z,36.00
2018-07-01T09:50:50.734Z,38.70
2018-07-01T09:53:18.282Z,34.30
2018-07-01T09:55:45.832Z,32.80
2018-07-01T09:58:18.612Z,34.40
2018-07-01T10:00:52.482Z,37.10
2018-07-01T10:03:20.072Z,37.30
2018-07-01T10:05:47.691Z,34.10
2018-07-01T10:08:15.235Z,35.00
2018-07-01T10:10:42.790Z,37.20
2018-07-01T10:13:10.415Z,32.90
2018-07-01T10:15:37.987Z,31.70
2018-07-01T10:18:05.618Z,32.30
2018-07-01T10:20:33.234Z,33.70
2018-07-01T10:23:00.982Z,33.30
2018-07-01T10:25:28.562Z,34.30
2018-07-01T10:27:56.119Z,33.30
2018-07-01T10:30:23.668Z,34.80
2018-07-01T10:32:51.414Z,34.70
2018-07-01T10:37:46.679Z,36.40
2018-07-01T10:40:14.495Z,33.00
2018-07-01T10:42:41.983Z,32.60
2018-07-01T10:45:09.540Z,34.70
2018-07-01T10:47:37.387Z,36.20
2018-07-01T10:50:05.198Z,31.20
2018-07-01T10:52:34.997Z,36.30
2018-07-01T10:55:02.664Z,37.50
2018-07-01T10:57:30.227Z,29.10
2018-07-01T10:59:57.735Z,29.80
2018-07-01T11:02:25.224Z,30.40
2018-07-01T11:04:52.795Z,32.00
2018-07-01T11:07:20.382Z,35.80
2018-07-01T11:12:15.437Z,30.90
2018-07-01T11:14:42.964Z,30.10
2018-07-01T11:17:10.531Z,30.60
2018-07-01T11:19:39.959Z,30.80
2018-07-01T11:22:07.691Z,32.70
2018-07-01T11:24:35.275Z,31.50
2018-07-01T11:29:30.356Z,30.60
2018-07-01T11:31:57.904Z,31.70
2018-07-01T11:34:25.497Z,31.90
2018-07-01T11:36:53.045Z,30.50
2018-07-01T11:39:20.663Z,31.20
2018-07-01T11:41:48.188Z,32.20
2018-07-01T11:46:43.230Z,32.50
2018-07-01T11:49:10.992Z,33.40
2018-07-01T11:51:38.553Z,33.30
2018-07-01T11:54:06.282Z,32.30
2018-07-01T11:56:34.077Z,29.90
2018-07-01T11:59:01.819Z,32.00
2018-07-01T12:01:29.371Z,29.90
2018-07-01T12:03:56.921Z,29.90
2018-07-01T12:06:24.487Z,27.60
2018-07-01T12:08:52.100Z,31.20
2018-07-01T12:11:19.693Z,31.40
2018-07-01T12:13:47.198Z,29.30
2018-07-01T12:16:14.767Z,28.60
2018-07-01T12:18:42.325Z,29.20
2018-07-01T12:21:09.975Z,28.40
2018-07-01T12:23:37.532Z,28.80
2018-07-01T12:26:05.726Z,30.20
2018-07-01T12:28:33.386Z,30.20
2018-07-01T12:31:01.003Z,28.10
2018-07-01T12:33:28.603Z,28.60
2018-07-01T12:35:56.154Z,27.80
2018-07-01T12:38:23.674Z,30.10
2018-07-01T12:40:51.203Z,28.20
2018-07-01T12:43:18.841Z,27.80
2018-07-01T12:45:46.371Z,27.80
2018-07-01T12:48:29.853Z,28.30
2018-07-01T12:50:57.412Z,29.10
2018-07-01T12:53:24.930Z,28.00
2018-07-01T12:55:52.499Z,28.60
2018-07-01T12:58:20.076Z,29.70
2018-07-01T13:00:47.691Z,28.60
2018-07-01T13:03:15.238Z,29.10
2018-07-01T13:05:42.785Z,31.10
2018-07-01T13:08:10.413Z,30.10
2018-07-01T13:10:37.962Z,27.70
2018-07-01T13:13:05.594Z,28.10
2018-07-01T13:15:33.167Z,27.70
2018-07-01T13:18:00.703Z,29.50
2018-07-01T13:20:28.281Z,28.60
2018-07-01T13:22:55.816Z,27.60
2018-07-01T13:25:23.420Z,26.40
2018-07-01T13:27:52.737Z,26.30
2018-07-01T13:30:26.293Z,27.50
2018-07-01T13:32:53.827Z,28.30
2018-07-01T13:35:21.377Z,29.80
2018-07-01T13:37:48.923Z,31.50
2018-07-01T13:40:16.466Z,29.00
2018-07-01T13:42:43.999Z,27.80
2018-07-01T13:45:11.581Z,30.10
2018-07-01T13:47:39.193Z,27.80
2018-07-01T13:50:06.862Z,28.20
2018-07-01T13:52:34.717Z,29.00
2018-07-01T13:55:02.533Z,26.10
2018-07-01T13:57:30.124Z,27.20
2018-07-01T13:59:57.671Z,29.50
2018-07-01T14:02:25.243Z,26.10
2018-07-01T14:04:52.779Z,27.60
2018-07-01T14:07:20.325Z,29.20
2018-07-01T14:09:47.849Z,27.70
2018-07-01T14:12:15.599Z,28.50
2018-07-01T14:14:43.379Z,28.60
2018-07-01T14:17:12.008Z,26.30
2018-07-01T14:19:45.483Z,25.40
2018-07-01T14:22:13.042Z,26.30
2018-07-01T14:24:55.096Z,27.70
2018-07-01T14:27:22.696Z,26.40
2018-07-01T14:30:00.456Z,24.80
2018-07-01T14:32:29.179Z,25.20
2018-07-01T14:35:20.465Z,25.40
2018-07-01T14:38:05.976Z,28.00
2018-07-01T14:40:53.933Z,26.10
2018-07-01T14:43:29.319Z,25.90
2018-07-01T14:45:56.835Z,26.10
2018-07-01T14:48:24.379Z,28.30
2018-07-01T14:50:51.929Z,27.90
2018-07-01T14:53:20.643Z,28.00
2018-07-01T14:55:54.924Z,26.90
2018-07-01T14:58:29.137Z,27.90
2018-07-01T15:01:00.251Z,28.00
2018-07-01T15:03:28.863Z,28.70
2018-07-01T15:06:03.211Z,27.90
2018-07-01T15:08:30.774Z,26.10
2018-07-01T15:11:04.456Z,26.40
2018-07-01T15:13:45.639Z,27.00
2018-07-01T15:16:15.231Z,25.80
2018-07-01T15:18:42.799Z,26.50
2018-07-01T15:21:24.963Z,27.50
2018-07-01T15:23:53.522Z,26.80
2018-07-01T15:28:48.682Z,28.80
2018-07-01T15:31:22.841Z,27.90
2018-07-01T15:33:50.346Z,28.10
2018-07-01T15:36:32.511Z,29.00
2018-07-01T15:39:00.037Z,28.90
2018-07-01T15:41:27.579Z,30.00
2018-07-01T15:43:55.073Z,32.00
2018-07-01T15:46:22.652Z,29.30
2018-07-01T15:48:50.179Z,29.90
2018-07-01T15:51:21.883Z,29.40
2018-07-01T15:53:53.396Z,28.40
2018-07-01T15:56:23.342Z,29.70
2018-07-01T15:58:51.060Z,30.60
2018-07-01T16:01:18.627Z,31.60
2018-07-01T16:03:46.341Z,29.50
2018-07-01T16:06:23.730Z,30.60
2018-07-01T16:09:01.535Z,29.80
2018-07-01T16:11:29.241Z,30.70
2018-07-01T16:14:01.847Z,31.00
2018-07-01T16:16:33.546Z,30.50
2018-07-01T16:19:10.784Z,30.50
2018-07-01T16:21:42.320Z,30.60
2018-07-01T16:24:09.875Z,31.20
2018-07-01T16:26:43.387Z,33.00
2018-07-01T16:29:10.948Z,32.90
2018-07-01T16:31:38.541Z,31.90
2018-07-01T16:34:06.106Z,31.50
2018-07-01T16:36:33.716Z,33.10
2018-07-01T16:39:01.258Z,32.10
2018-07-01T16:41:28.825Z,32.40
2018-07-01T16:43:56.652Z,32.00
2018-07-01T16:46:24.191Z,32.90
2018-07-01T16:48:51.800Z,32.80
2018-07-01T16:51:19.443Z,32.50
2018-07-01T16:53:46.958Z,32.70
2018-07-01T16:56:14.545Z,32.60
2018-07-01T16:58:42.062Z,34.30
2018-07-01T17:01:09.634Z,34.30
2018-07-01T17:03:37.391Z,33.90
2018-07-01T17:06:08.757Z,34.20
2018-07-01T17:08:36.477Z,36.00
2018-07-01T17:11:04.079Z,35.10
2018-07-01T17:13:31.693Z,35.30
2018-07-01T17:15:59.231Z,36.50
2018-07-01T17:18:26.768Z,35.20
2018-07-01T17:20:54.677Z,37.00
2018-07-01T17:25:53.787Z,34.90
2018-07-01T17:28:22.753Z,36.10
2018-07-01T17:30:57.773Z,35.80
2018-07-01T17:33:38.643Z,35.30
2018-07-01T17:36:06.507Z,36.50
2018-07-01T17:38:34.258Z,36.90
2018-07-01T17:41:01.909Z,35.50
2018-07-01T17:43:29.751Z,36.10
2018-07-01T17:45:58.770Z,35.70
2018-07-01T17:48:26.695Z,36.40
2018-07-01T17:50:54.331Z,37.10
2018-07-01T17:53:33.585Z,38.00
2018-07-01T17:56:01.105Z,36.80
2018-07-01T17:58:28.663Z,38.10
2018-07-01T18:00:57.275Z,37.40
2018-07-01T18:03:24.883Z,37.50
2018-07-01T18:05:52.459Z,37.30
2018-07-01T18:08:20.388Z,37.80
2018-07-01T18:10:48.263Z,37.90
2018-07-01T18:13:16.047Z,38.80
2018-07-01T18:15:43.698Z,39.10
2018-07-01T18:18:11.383Z,39.40
2018-07-01T18:20:39.022Z,39.10
2018-07-01T18:23:35.847Z,39.60
2018-07-01T18:25:37.519Z,38.60
2018-07-01T18:28:18.883Z,39.60
2018-07-01T18:30:32.877Z,39.00
2018-07-01T18:33:00.479Z,40.10
2018-07-01T18:35:28.078Z,40.00
2018-07-01T18:37:55.954Z,40.90
2018-07-01T18:40:23.833Z,41.00
2018-07-01T18:42:51.442Z,41.00
2018-07-01T18:45:19.027Z,41.50
2018-07-01T18:47:46.580Z,42.00
2018-07-01T18:50:15.194Z,42.40
2018-07-01T18:52:42.902Z,42.20
2018-07-01T18:55:10.510Z,42.80
2018-07-01T19:00:06.295Z,43.00
2018-07-01T19:02:33.891Z,43.70
2018-07-01T19:05:01.460Z,43.90
2018-07-01T19:07:29.055Z,44.50
2018-07-01T19:09:56.780Z,44.70
2018-07-01T19:12:24.385Z,45.10
2018-07-01T19:14:51.972Z,46.10
2018-07-01T19:17:19.683Z,46.00
2018-07-01T19:19:47.246Z,46.40
2018-07-01T19:22:14.814Z,46.90
2018-07-01T19:24:42.377Z,47.40
2018-07-01T19:27:09.969Z,47.70
2018-07-01T19:29:37.535Z,48.30
2018-07-01T19:32:05.104Z,48.60
2018-07-01T19:34:32.820Z,49.00
2018-07-01T19:37:00.423Z,49.10
2018-07-01T19:39:27.996Z,49.50
2018-07-01T19:41:55.576Z,49.70
2018-07-01T19:44:23.147Z,50.00
2018-07-01T19:46:50.898Z,50.20
2018-07-01T19:49:18.621Z,50.40
2018-07-01T19:51:46.275Z,51.30
2018-07-01T19:54:13.917Z,50.70
2018-07-01T19:56:43.055Z,51.00
2018-07-01T19:59:18.518Z,51.10
2018-07-01T20:01:46.116Z,51.70
2018-07-01T20:04:13.963Z,51.90
2018-07-01T20:06:41.549Z,52.40
2018-07-01T20:09:09.717Z,52.60
2018-07-01T20:11:37.284Z,53.00
2018-07-01T20:14:05.267Z,53.30
2018-07-01T20:16:32.840Z,53.70
2018-07-01T20:19:00.394Z,53.90
2018-07-01T20:21:28.061Z,54.30
2018-07-01T20:23:55.651Z,54.50
2018-07-01T20:26:23.202Z,55.00
2018-07-01T20:28:51.094Z,55.40
2018-07-01T20:31:18.682Z,56.00
2018-07-01T20:33:46.228Z,56.50
2018-07-01T20:36:13.851Z,56.80
2018-07-01T20:38:41.451Z,57.30
2018-07-01T20:41:09.338Z,57.80
2018-07-01T20:43:52.510Z,58.50
2018-07-01T20:46:25.168Z,59.00
2018-07-01T20:48:58.672Z,59.40
2018-07-01T20:51:32.469Z,60.10
2018-07-01T20:54:01.055Z,60.60
2018-07-01T20:56:28.670Z,61.50
2018-07-01T20:58:56.703Z,62.70
2018-07-01T21:01:24.853Z,63.30
2018-07-01T21:03:52.642Z,64.00
2018-07-01T21:06:20.225Z,64.60
2018-07-01T21:08:47.866Z,65.40
2018-07-01T21:11:15.443Z,66.30
2018-07-01T21:13:43.009Z,66.70
2018-07-01T21:16:10.608Z,67.20
2018-07-01T21:21:06.040Z,68.80
2018-07-01T21:23:33.644Z,68.50
2018-07-01T21:26:01.219Z,68.90
2018-07-01T21:28:28.804Z,69.30
2018-07-01T21:30:56.382Z,69.60
2018-07-01T21:33:23.961Z,70.40
2018-07-01T21:35:51.600Z,71.10
2018-07-01T21:38:19.167Z,72.00
2018-07-01T21:40:46.777Z,72.80
2018-07-01T21:43:14.310Z,73.50
2018-07-01T21:45:42.824Z,74.50
2018-07-01T21:48:10.395Z,74.90
2018-07-01T21:50:37.994Z,76.00
2018-07-01T21:53:05.690Z,76.20
2018-07-01T21:55:33.337Z,76.50
2018-07-01T21:58:00.941Z,77.40
2018-07-01T22:00:30.442Z,77.20
2018-07-01T22:02:57.986Z,77.20
2018-07-01T22:05:25.577Z,77.30
2018-07-01T22:07:53.479Z,77.20
2018-07-01T22:10:32.756Z,77.20
2018-07-01T22:13:00.384Z,76.40
2018-07-01T22:15:39.594Z,75.60
2018-07-01T22:18:07.165Z,75.60
2018-07-01T22:20:34.766Z,76.20
2018-07-01T22:23:02.339Z,76.30
2018-07-01T22:25:29.993Z,76.50
2018-07-01T22:27:57.597Z,77.00
2018-07-01T22:30:25.241Z,77.30
2018-07-01T22:32:52.809Z,77.10
2018-07-01T22:35:20.370Z,77.80
2018-07-01T22:37:47.904Z,77.80
2018-07-01T22:40:15.483Z,78.60
2018-07-01T22:42:43.075Z,78.60
2018-07-01T22:45:10.702Z,78.90
2018-07-01T22:47:38.261Z,79.20
2018-07-01T22:50:05.801Z,80.00
2018-07-01T22:52:33.427Z,80.20
2018-07-01T22:55:01.036Z,80.00
2018-07-01T22:57:28.637Z,80.40
2018-07-01T23:03:01.795Z,80.40
2018-07-01T23:05:29.432Z,80.40
2018-07-01T23:07:57.002Z,81.20
2018-07-01T23:10:25.716Z,81.60
2018-07-01T23:12:54.170Z,82.00
2018-07-01T23:15:21.795Z,82.60
2018-07-01T23:17:49.676Z,82.60
2018-07-01T23:22:44.882Z,82.90
2018-07-01T23:25:12.902Z,83.50
2018-07-01T23:27:40.978Z,83.60
2018-07-01T23:30:08.562Z,84.30
2018-07-01T23:32:36.131Z,84.40
2018-07-01T23:35:04.162Z,85.10
2018-07-01T23:37:31.840Z,85.10
2018-07-01T23:39:59.442Z,85.40
2018-07-01T23:42:27.034Z,85.40
2018-07-01T23:44:54.616Z,85.10
2018-07-01T23:47:22.211Z,85.30
2018-07-01T23:49:49.810Z,84.50
2018-07-01T23:52:18.022Z,83.90
2018-07-01T23:54:45.655Z,83.50
2018-07-01T23:57:13.350Z,83.70
2018-07-01T23:59:40.967Z,83.40
